createdAt,value
2023-03-06T00:01:49.067Z,8.77
2023-03-06T00:04:51.778Z,13.30
2023-03-06T00:07:54.121Z,8.82
2023-03-06T00:10:57.817Z,8.45
2023-03-06T00:14:00.173Z,9.43
2023-03-06T00:17:02.879Z,11.38
2023-03-06T00:20:06.947Z,10.60
2023-03-06T00:23:11.194Z,11.38
2023-03-06T00:26:13.708Z,8.68
2023-03-06T00:29:16.836Z,10.13
2023-03-06T00:32:19.938Z,9.20
2023-03-06T00:35:22.712Z,8.23
2023-03-06T00:38:27.629Z,9.43
2023-03-06T00:41:31.420Z,9.70
2023-03-06T00:44:33.786Z,10.18
2023-03-06T00:47:37.667Z,8.70
2023-03-06T00:50:40.045Z,9.53
2023-03-06T00:53:42.842Z,7.32
2023-03-06T00:56:45.161Z,9.48
2023-03-06T00:59:48.097Z,9.95
2023-03-06T01:02:50.750Z,8.60
2023-03-06T01:05:53.440Z,9.47
2023-03-06T01:08:55.804Z,7.53
2023-03-06T01:12:00.784Z,8.50
2023-03-06T01:15:04.554Z,8.90
2023-03-06T01:18:07.223Z,8.15
2023-03-06T01:21:12.536Z,6.97
2023-03-06T01:24:15.151Z,8.65
2023-03-06T01:27:17.462Z,8.43
2023-03-06T01:30:20.626Z,13.75
2023-03-06T01:33:23.026Z,9.30
2023-03-06T01:36:25.733Z,9.13
2023-03-06T01:39:28.824Z,7.82
2023-03-06T01:42:32.246Z,10.88
2023-03-06T01:45:34.613Z,6.30
2023-03-06T01:48:37.258Z,8.45
2023-03-06T01:51:51.509Z,11.50
2023-03-06T01:55:00.611Z,9.32
2023-03-06T01:58:16.905Z,7.80
2023-03-06T02:01:20.142Z,11.18
2023-03-06T02:04:23.644Z,8.98
2023-03-06T02:07:26.605Z,8.30
2023-03-06T02:10:29.614Z,9.82
2023-03-06T02:13:32.415Z,9.40
2023-03-06T02:16:35.396Z,9.85
2023-03-06T02:19:59.542Z,11.02
2023-03-06T02:23:39.435Z,8.60
2023-03-06T02:26:43.764Z,8.60
2023-03-06T02:29:47.323Z,8.82
2023-03-06T02:32:50.181Z,8.93
2023-03-06T02:35:58.866Z,8.20
2023-03-06T02:39:01.758Z,10.70
2023-03-06T02:42:04.700Z,7.57
2023-03-06T02:45:10.816Z,7.75
2023-03-06T02:48:15.238Z,8.88
2023-03-06T02:51:17.730Z,9.73
2023-03-06T02:54:20.350Z,8.93
2023-03-06T02:57:22.846Z,8.65
2023-03-06T03:00:25.906Z,8.30
2023-03-06T03:03:29.229Z,10.23
2023-03-06T03:06:33.254Z,10.07
2023-03-06T03:09:37.222Z,9.03
2023-03-06T03:12:40.143Z,9.75
2023-03-06T03:15:42.602Z,10.77
2023-03-06T03:18:47.821Z,7.93
2023-03-06T03:21:50.920Z,9.38
2023-03-06T03:24:56.389Z,8.67
2023-03-06T03:27:58.789Z,8.07
2023-03-06T03:31:06.728Z,9.77
2023-03-06T03:34:09.572Z,8.98
2023-03-06T03:37:12.536Z,8.50
2023-03-06T03:40:17.388Z,8.87
2023-03-06T03:43:20.286Z,8.65
2023-03-06T03:46:22.800Z,9.48
2023-03-06T03:49:25.960Z,8.65
2023-03-06T03:52:28.607Z,10.95
2023-03-06T03:55:31.746Z,9.47
2023-03-06T03:58:34.619Z,10.05
2023-03-06T04:01:39.537Z,9.23
2023-03-06T04:04:43.121Z,10.48
2023-03-06T04:07:46.785Z,8.52
2023-03-06T04:10:51.333Z,8.07
2023-03-06T04:13:53.647Z,9.10
2023-03-06T04:16:56.343Z,8.48
2023-03-06T04:19:58.818Z,12.45
2023-03-06T04:23:01.762Z,9.23
2023-03-06T04:26:04.621Z,9.33
2023-03-06T04:29:08.550Z,10.27
2023-03-06T04:32:11.099Z,13.23
2023-03-06T04:35:14.922Z,9.65
2023-03-06T04:38:17.602Z,12.13
2023-03-06T04:41:20.937Z,11.43
2023-03-06T04:44:23.359Z,10.07
2023-03-06T04:47:26.095Z,13.45
2023-03-06T04:50:32.524Z,12.70
2023-03-06T04:53:35.248Z,12.40
2023-03-06T04:56:37.619Z,11.53
2023-03-06T04:59:40.320Z,10.60
2023-03-06T05:02:44.313Z,11.82
2023-03-06T05:05:47.074Z,12.73
2023-03-06T05:08:49.481Z,13.82
2023-03-06T05:11:52.319Z,15.00
2023-03-06T05:14:54.630Z,13.93
2023-03-06T05:17:57.317Z,12.68
2023-03-06T05:21:00.199Z,11.20
2023-03-06T05:24:02.965Z,12.10
2023-03-06T05:27:05.338Z,13.37
2023-03-06T05:30:11.967Z,12.32
2023-03-06T05:33:14.388Z,14.38
2023-03-06T05:36:17.040Z,15.23
2023-03-06T05:39:19.366Z,13.88
2023-03-06T05:42:22.063Z,11.53
2023-03-06T05:45:24.389Z,16.02
2023-03-06T05:48:27.157Z,14.05
2023-03-06T05:51:30.018Z,11.77
2023-03-06T05:54:34.734Z,13.25
2023-03-06T05:57:37.113Z,12.10
2023-03-06T06:00:39.682Z,14.10
2023-03-06T06:03:42.942Z,10.73
2023-03-06T06:06:45.239Z,13.13
2023-03-06T06:09:47.953Z,11.57
2023-03-06T06:12:50.353Z,14.57
2023-03-06T06:15:53.316Z,14.48
2023-03-06T06:18:57.431Z,13.52
2023-03-06T06:22:02.577Z,13.38
2023-03-06T06:25:06.424Z,13.77
2023-03-06T06:28:09.005Z,13.30
2023-03-06T06:31:13.061Z,15.10
2023-03-06T06:34:15.865Z,15.48
2023-03-06T06:37:18.193Z,16.12
2023-03-06T06:40:23.633Z,12.95
2023-03-06T06:43:26.013Z,12.03
2023-03-06T06:47:02.694Z,14.48
2023-03-06T06:49:53.141Z,17.58
2023-03-06T06:52:55.768Z,15.85
2023-03-06T06:55:59.360Z,18.27
2023-03-06T06:59:15.655Z,14.27
2023-03-06T07:02:18.743Z,12.55
2023-03-06T07:05:22.181Z,18.33
2023-03-06T07:08:24.720Z,16.48
2023-03-06T07:11:27.400Z,12.15
2023-03-06T07:14:29.901Z,15.73
2023-03-06T07:17:32.699Z,16.58
2023-03-06T07:20:36.175Z,14.82
2023-03-06T07:23:38.794Z,14.30
2023-03-06T07:26:41.125Z,13.65
2023-03-06T07:29:44.431Z,15.70
2023-03-06T07:32:46.828Z,18.33
2023-03-06T07:35:49.591Z,14.70
2023-03-06T07:38:52.070Z,16.45
2023-03-06T07:41:55.020Z,18.05
2023-03-06T07:44:57.466Z,14.73
2023-03-06T07:48:04.952Z,18.90
2023-03-06T07:51:13.806Z,18.65
2023-03-06T07:54:16.601Z,14.45
2023-03-06T07:57:19.009Z,16.00
2023-03-06T08:00:22.090Z,15.53
2023-03-06T08:03:25.932Z,16.27
2023-03-06T08:06:28.573Z,14.30
2023-03-06T08:09:31.291Z,13.43
2023-03-06T08:12:33.673Z,15.07
2023-03-06T08:15:36.438Z,17.00
2023-03-06T08:18:40.019Z,16.95
2023-03-06T08:21:42.920Z,14.70
2023-03-06T08:24:45.453Z,14.35
2023-03-06T08:27:48.213Z,15.95
2023-03-06T08:30:50.655Z,15.67
2023-03-06T08:33:54.617Z,16.37
2023-03-06T08:36:57.028Z,13.88
2023-03-06T08:39:59.729Z,16.95
2023-03-06T08:43:02.093Z,18.92
2023-03-06T08:46:05.040Z,19.30
2023-03-06T08:49:07.756Z,17.12
2023-03-06T08:52:11.239Z,15.65
2023-03-06T08:55:15.137Z,17.20
2023-03-06T08:58:17.967Z,18.17
2023-03-06T09:01:23.163Z,18.83
2023-03-06T09:04:25.991Z,18.83
2023-03-06T09:07:29.648Z,22.87
2023-03-06T09:10:32.708Z,15.73
2023-03-06T09:13:35.492Z,22.35
2023-03-06T09:16:38.371Z,19.97
2023-03-06T09:19:40.780Z,21.83
2023-03-06T09:22:45.525Z,18.45
2023-03-06T09:25:55.916Z,22.73
2023-03-06T09:28:58.549Z,18.98
2023-03-06T09:32:01.015Z,18.27
2023-03-06T09:35:04.001Z,21.33
2023-03-06T09:38:07.416Z,20.40
2023-03-06T09:41:19.205Z,18.17
2023-03-06T09:44:26.108Z,22.67
2023-03-06T09:48:01.826Z,17.63
2023-03-06T09:51:13.953Z,16.33
2023-03-06T09:54:16.987Z,16.58
2023-03-06T09:57:24.549Z,16.33
2023-03-06T10:00:38.783Z,19.37
2023-03-06T10:04:06.128Z,27.97
2023-03-06T10:07:34.484Z,18.90
2023-03-06T10:11:02.531Z,20.55
2023-03-06T10:14:32.060Z,17.45
2023-03-06T10:17:37.908Z,22.80
2023-03-06T10:20:56.616Z,18.60
2023-03-06T10:24:29.458Z,21.77
2023-03-06T10:27:39.605Z,18.20
2023-03-06T10:31:05.439Z,19.25
2023-03-06T10:34:23.913Z,21.05
2023-03-06T10:37:31.567Z,19.50
2023-03-06T10:40:55.219Z,23.05
2023-03-06T10:44:00.638Z,20.30
2023-03-06T10:47:35.350Z,18.87
2023-03-06T10:50:38.274Z,19.67
2023-03-06T10:53:57.195Z,20.37
2023-03-06T10:57:24.913Z,17.98
2023-03-06T11:00:36.129Z,22.58
2023-03-06T11:03:38.885Z,23.62
2023-03-06T11:06:41.390Z,18.10
2023-03-06T11:10:17.006Z,20.03
2023-03-06T11:13:23.970Z,20.23
2023-03-06T11:16:30.657Z,20.88
2023-03-06T11:19:33.565Z,20.73
2023-03-06T11:22:38.586Z,19.90
2023-03-06T11:25:48.504Z,26.37
2023-03-06T11:29:12.185Z,21.12
2023-03-06T11:32:16.638Z,21.55
2023-03-06T11:35:25.692Z,19.58
2023-03-06T11:38:51.186Z,21.00
2023-03-06T11:42:05.229Z,21.57
2023-03-06T11:45:16.811Z,23.30
2023-03-06T11:48:24.815Z,22.25
2023-03-06T11:51:33.113Z,19.87
2023-03-06T11:54:36.087Z,21.37
2023-03-06T11:57:52.540Z,26.50
2023-03-06T12:01:00.933Z,20.30
2023-03-06T12:04:22.519Z,25.10
2023-03-06T12:07:47.086Z,22.05
2023-03-06T12:10:57.959Z,22.13
2023-03-06T12:14:22.541Z,22.47
2023-03-06T12:17:53.214Z,21.12
2023-03-06T12:21:18.192Z,22.30
2023-03-06T12:24:52.047Z,21.45
2023-03-06T12:28:23.697Z,22.37
2023-03-06T12:31:44.865Z,19.90
2023-03-06T12:35:06.054Z,25.02
2023-03-06T12:38:48.025Z,24.63
2023-03-06T12:42:22.862Z,20.23
2023-03-06T12:45:37.196Z,18.42
2023-03-06T12:48:41.966Z,20.17
2023-03-06T12:51:46.066Z,23.02
2023-03-06T12:54:48.993Z,23.67
2023-03-06T12:57:52.765Z,19.50
2023-03-06T13:01:16.662Z,19.85
2023-03-06T13:04:25.299Z,20.53
2023-03-06T13:07:33.888Z,24.33
2023-03-06T13:10:39.889Z,20.55
2023-03-06T13:13:44.982Z,21.40
2023-03-06T13:16:47.886Z,23.20
2023-03-06T13:20:13.021Z,23.23
2023-03-06T13:23:34.008Z,21.08
2023-03-06T13:26:36.488Z,23.23
2023-03-06T13:29:39.307Z,22.02
2023-03-06T13:32:41.774Z,21.42
2023-03-06T13:35:51.736Z,23.60
2023-03-06T13:39:11.273Z,24.80
2023-03-06T13:42:29.829Z,22.37
2023-03-06T13:45:43.349Z,18.42
2023-03-06T13:48:46.348Z,23.23
2023-03-06T13:51:51.897Z,22.60
2023-03-06T13:55:13.095Z,21.50
2023-03-06T13:58:15.415Z,25.05
2023-03-06T14:01:20.839Z,22.05
2023-03-06T14:04:58.704Z,23.02
2023-03-06T14:08:15.914Z,23.87
2023-03-06T14:11:21.480Z,23.40
2023-03-06T14:14:34.068Z,27.98
2023-03-06T14:17:39.251Z,20.45
2023-03-06T14:20:59.070Z,23.67
2023-03-06T14:24:04.159Z,23.80
2023-03-06T14:27:06.736Z,25.42
2023-03-06T14:30:14.737Z,22.87
2023-03-06T14:33:34.965Z,25.25
2023-03-06T14:36:48.988Z,24.08
2023-03-06T14:39:51.972Z,24.87
2023-03-06T14:43:21.689Z,23.35
2023-03-06T14:46:24.161Z,19.65
2023-03-06T14:49:27.182Z,24.02
2023-03-06T14:52:29.855Z,22.10
2023-03-06T14:55:35.216Z,24.87
2023-03-06T14:58:58.256Z,27.67
2023-03-06T15:02:04.454Z,24.15
2023-03-06T15:05:18.647Z,23.62
2023-03-06T15:08:29.944Z,22.50
2023-03-06T15:12:20.042Z,23.10
2023-03-06T15:15:29.055Z,24.23
2023-03-06T15:18:39.827Z,29.20
2023-03-06T15:21:48.462Z,22.70
2023-03-06T15:24:51.132Z,21.60
2023-03-06T15:27:55.630Z,24.87
2023-03-06T15:31:10.465Z,27.40
2023-03-06T15:34:13.311Z,22.17
2023-03-06T15:37:26.650Z,21.77
2023-03-06T15:40:31.829Z,20.50
2023-03-06T15:43:39.430Z,24.23
2023-03-06T15:46:42.474Z,21.33
2023-03-06T15:49:44.988Z,23.62
2023-03-06T15:52:48.779Z,23.98
2023-03-06T15:55:52.597Z,22.35
2023-03-06T15:58:56.693Z,20.57
2023-03-06T16:02:04.626Z,21.85
2023-03-06T16:05:17.566Z,20.58
2023-03-06T16:08:19.907Z,27.13
2023-03-06T16:11:35.444Z,26.05
2023-03-06T16:14:47.325Z,21.00
2023-03-06T16:17:50.318Z,19.75
2023-03-06T16:20:52.722Z,19.67
2023-03-06T16:23:55.415Z,23.70
2023-03-06T16:27:00.588Z,23.58
2023-03-06T16:30:04.767Z,24.43
2023-03-06T16:33:10.100Z,28.35
2023-03-06T16:36:14.756Z,26.98
2023-03-06T16:39:22.653Z,24.23
2023-03-06T16:42:25.416Z,22.90
2023-03-06T16:45:27.823Z,22.03
2023-03-06T16:48:30.571Z,26.20
2023-03-06T16:51:33.610Z,21.02
2023-03-06T16:54:36.345Z,25.27
2023-03-06T16:57:38.741Z,22.15
2023-03-06T17:00:41.695Z,22.70
2023-03-06T17:03:45.108Z,27.62
2023-03-06T17:06:47.993Z,23.23
2023-03-06T17:09:50.370Z,25.90
2023-03-06T17:12:54.108Z,20.92
2023-03-06T17:15:56.953Z,26.83
2023-03-06T17:19:00.935Z,24.70
2023-03-06T17:22:03.418Z,21.42
2023-03-06T17:25:07.716Z,20.30
2023-03-06T17:28:10.816Z,22.73
2023-03-06T17:31:14.218Z,24.27
2023-03-06T17:34:16.640Z,24.45
2023-03-06T17:37:19.979Z,21.40
2023-03-06T17:40:22.411Z,23.77
2023-03-06T17:43:25.141Z,19.95
2023-03-06T17:46:27.758Z,26.33
2023-03-06T17:49:30.967Z,24.12
2023-03-06T17:52:33.780Z,25.75
2023-03-06T17:55:38.514Z,22.95
2023-03-06T17:58:41.278Z,20.48
2023-03-06T18:01:45.057Z,22.17
2023-03-06T18:04:47.872Z,23.27
2023-03-06T18:07:50.291Z,24.23
2023-03-06T18:10:59.162Z,24.25
2023-03-06T18:14:05.019Z,21.70
2023-03-06T18:17:08.215Z,21.93
2023-03-06T18:20:11.233Z,20.65
2023-03-06T18:23:14.227Z,23.60
2023-03-06T18:26:18.677Z,22.52
2023-03-06T18:29:21.444Z,27.92
2023-03-06T18:32:24.041Z,25.07
2023-03-06T18:35:26.831Z,22.23
2023-03-06T18:38:29.290Z,25.65
2023-03-06T18:41:32.528Z,27.83
2023-03-06T18:44:35.050Z,27.25
2023-03-06T18:47:37.695Z,27.63
2023-03-06T18:50:40.003Z,29.05
2023-03-06T18:53:43.568Z,28.77
2023-03-06T18:56:45.933Z,25.95
2023-03-06T18:59:48.668Z,29.80
2023-03-06T19:02:51.021Z,28.77
2023-03-06T19:05:53.734Z,29.08
2023-03-06T19:09:01.466Z,26.52
2023-03-06T19:12:04.743Z,23.80
2023-03-06T19:15:07.764Z,25.30
2023-03-06T19:18:15.228Z,25.53
2023-03-06T19:21:22.696Z,24.67
2023-03-06T19:24:25.703Z,26.08
2023-03-06T19:27:28.029Z,26.25
2023-03-06T19:30:30.806Z,24.87
2023-03-06T19:33:36.019Z,30.90
2023-03-06T19:36:40.630Z,24.00
2023-03-06T19:39:43.573Z,26.73
2023-03-06T19:42:46.684Z,23.38
2023-03-06T19:45:49.066Z,29.02
2023-03-06T19:48:59.705Z,24.13
2023-03-06T19:52:02.104Z,24.02
2023-03-06T19:55:06.015Z,26.58
2023-03-06T19:58:08.508Z,27.02
2023-03-06T20:01:18.544Z,26.60
2023-03-06T20:04:21.494Z,22.57
2023-03-06T20:07:24.323Z,25.60
2023-03-06T20:10:27.060Z,25.55
2023-03-06T20:13:29.745Z,26.33
2023-03-06T20:16:33.456Z,28.13
2023-03-06T20:19:35.819Z,24.85
2023-03-06T20:22:38.537Z,34.00
2023-03-06T20:25:41.054Z,29.33
2023-03-06T20:28:43.842Z,28.02
2023-03-06T20:31:46.169Z,34.37
2023-03-06T20:34:48.919Z,26.58
2023-03-06T20:37:51.286Z,30.88
2023-03-06T20:40:56.069Z,25.88
2023-03-06T20:44:00.158Z,28.80
2023-03-06T20:47:02.817Z,27.90
2023-03-06T20:50:05.703Z,26.20
2023-03-06T20:53:08.379Z,23.12
2023-03-06T20:56:16.039Z,28.25
2023-03-06T20:59:18.947Z,30.62
2023-03-06T21:02:21.389Z,23.63
2023-03-06T21:05:24.023Z,25.65
2023-03-06T21:08:26.506Z,29.48
2023-03-06T21:11:29.834Z,30.10
2023-03-06T21:14:32.218Z,28.23
2023-03-06T21:17:34.905Z,29.40
2023-03-06T21:20:41.573Z,27.60
2023-03-06T21:23:44.927Z,28.25
2023-03-06T21:26:48.131Z,27.17
2023-03-06T21:29:50.800Z,33.42
2023-03-06T21:32:53.633Z,29.17
2023-03-06T21:35:56.451Z,30.42
2023-03-06T21:38:58.868Z,27.70
2023-03-06T21:42:01.540Z,28.90
2023-03-06T21:45:05.233Z,29.10
2023-03-06T21:48:08.838Z,28.13
2023-03-06T21:51:15.783Z,30.25
2023-03-06T21:54:18.910Z,28.87
2023-03-06T21:57:21.308Z,30.17
2023-03-06T22:00:25.732Z,36.53
2023-03-06T22:03:31.163Z,24.73
2023-03-06T22:06:33.472Z,30.12
2023-03-06T22:09:37.351Z,28.52
2023-03-06T22:12:39.941Z,26.60
2023-03-06T22:15:52.865Z,28.92
2023-03-06T22:18:55.569Z,27.20
2023-03-06T22:21:58.303Z,27.40
2023-03-06T22:25:00.697Z,30.05
2023-03-06T22:28:03.329Z,26.50
2023-03-06T22:31:07.093Z,32.58
2023-03-06T22:34:10.104Z,28.00
2023-03-06T22:37:12.539Z,32.85
2023-03-06T22:40:15.338Z,29.83
2023-03-06T22:43:20.060Z,29.58
2023-03-06T22:46:23.557Z,30.60
2023-03-06T22:49:25.932Z,32.87
2023-03-06T22:52:28.584Z,30.55
2023-03-06T22:55:31.018Z,30.27
2023-03-06T22:58:37.087Z,29.00
2023-03-06T23:01:39.624Z,36.92
2023-03-06T23:04:42.469Z,30.50
2023-03-06T23:07:44.981Z,28.77
2023-03-06T23:10:47.137Z,30.30
2023-03-06T23:14:08.206Z,36.67
2023-03-06T23:17:28.855Z,31.17
2023-03-06T23:20:49.691Z,34.27
2023-03-06T23:24:10.534Z,33.03
2023-03-06T23:27:15.325Z,33.50
2023-03-06T23:30:17.795Z,34.70
2023-03-06T23:33:20.694Z,33.63
2023-03-06T23:36:23.278Z,30.07
2023-03-06T23:39:25.984Z,37.67
2023-03-06T23:42:28.412Z,32.40
2023-03-06T23:45:31.607Z,32.03
2023-03-06T23:48:35.657Z,35.30
2023-03-06T23:51:38.328Z,34.40
2023-03-06T23:54:40.771Z,34.50
2023-03-06T23:57:43.589Z,36.70
